• Join FlightAware (Why Join?)
  • Login
  • US Flag 
10:03AM EDT


 

Airport Tracker/Info


-or-


 

Live Flight TrackerFlight Track Log ✈ N960DL ✈ 29-Apr-2013 ✈ KATL - KCVG

Flight Track Log - Related Links

Times and Time Zones

All times are in EDT time to prevent confusion due to time zone crossing. See the N960DL flight status page for this flight to view local times or setup timezone preferences in your user account.

Time Position Orientation Groundspeed Altitude Reporting Facility
EDT Latitude Longitude Course Direction KTS MPH feet Rate Location/Type
05:16PM 33.6667 -84.5167 North 237 273 3,000  Level Atlanta TRACON
05:17PM 33.7000 -84.5833 301° West 281 323 6,000 3,120 Climbing Atlanta TRACON
05:18PM 33.8454 -84.1787 320° Northwest  Level FlightAware Approximate
05:18PM 33.7833 -84.5833 360° North 285 328 9,300  Level Atlanta TRACON
05:19PM 33.9456 -84.2667 North  Level FlightAware Approximate
05:19PM 33.8811 -84.4742 43° Northeast 296 341 11,100  Level Atlanta Center
05:20PM 34.0722 -84.2667 North  Level FlightAware Approximate
05:20PM 33.9669 -84.3869 40° Northeast 357 411 13,500  Level Atlanta Center
05:21PM 34.1988 -84.2667 North  Level FlightAware Approximate
05:21PM 34.0672 -84.3572 14° North 359 413 16,100  Level Atlanta Center
05:22PM 34.1842 -84.3150 17° North 391 450 18,600 1,920 Climbing Atlanta Center
05:23PM 34.2992 -84.2878 11° North 403 464 20,000 1,260 Climbing Atlanta Center
05:24PM 34.4203 -84.2831 North 422 486 21,200 960 Climbing Atlanta Center
05:25PM 34.5411 -84.3011 353° North 435 501 22,000 600 Climbing Atlanta Center
05:26PM 34.6642 -84.3142 355° North 446 513 22,400 540 Climbing Atlanta Center
05:27PM 34.7872 -84.3297 354° North 446 513 23,100 1,200 Climbing Atlanta Center
05:28PM 34.9147 -84.3478 353° North 446 513 24,900 1,740 Climbing Atlanta Center
05:29PM 35.0356 -84.3608 355° North 446 513 26,600 1,740 Climbing Atlanta Center
05:30PM 35.1586 -84.3742 355° North 446 513 28,400 1,560 Climbing Atlanta Center
05:31PM 35.2817 -84.3772 359° North 441 507 29,800 780 Climbing Atlanta Center
05:32PM 35.4008 -84.3292 18° North 435 501 30,000 60 Climbing Atlanta Center
05:33PM 35.5197 -84.2736 21° North 440 506 30,000  Level Atlanta Center
05:34PM 35.6325 -84.2175 22° Northeast 440 506 30,000 420 Level Atlanta Center
05:35PM 35.7475 -84.1642 21° North 440 506 30,900 960 Climbing Atlanta Center
05:36PM 35.8622 -84.1106 21° North 435 501 32,000 540 Climbing Atlanta Center
05:37PM 35.9644 -84.0619 21° North 435 501 32,000  Level Atlanta Center
05:39PM 36.1978 -83.9478 22° Northeast 442 509 32,000  Level Indianapolis Center
05:40PM 36.3128 -83.8933 21° North 443 510 32,000  Level Indianapolis Center
05:41PM 36.4261 -83.8369 22° Northeast 441 507 32,000  Level Indianapolis Center
05:42PM 36.5522 -83.7817 19° North 443 510 32,000  Level Indianapolis Center
05:43PM 36.6758 -83.7628 North 442 509 32,000  Level Indianapolis Center
05:44PM 36.7972 -83.7411 North 439 505 32,000 -540 Level Indianapolis Center
05:46PM 36.9206 -83.7189 North 443 510 31,000 -1,020 Descending Indianapolis Center
05:47PM 37.0447 -83.6961 North 447 514 30,000 -960 Descending Indianapolis Center
05:48PM 37.1692 -83.6753 North 448 516 29,100 -540 Descending Indianapolis Center
05:49PM 37.3144 -83.6489 North 448 516 29,000 -660 Descending Indianapolis Center
05:50PM 37.4394 -83.6256 North 449 517 27,800 -1,800 Descending Indianapolis Center
05:51PM 37.5656 -83.6011 North 453 521 25,400 -1,860 Descending Indianapolis Center
05:52PM 37.6856 -83.6158 354° North 450 518 24,000 -1,260 Descending Indianapolis Center
05:53PM 37.7950 -83.6911 331° Northwest 447 514 22,800 -2,100 Descending Indianapolis Center
05:54PM 37.9028 -83.7647 332° Northwest 441 507 19,700 -3,120 Descending Indianapolis Center
05:55PM 38.0236 -83.8481 331° Northwest 429 494 16,400 -2,820 Descending Indianapolis Center
05:56PM 38.1206 -83.9197 330° Northwest 406 467 13,900 -2,220 Descending Indianapolis Center
05:57PM 38.2136 -83.9869 330° Northwest 386 444 11,900 -1,380 Descending Indianapolis Center
05:58PM 38.3042 -84.0586 328° Northwest 383 441 11,100 -480 Descending Indianapolis Center
05:59PM 38.3958 -84.1261 330° Northwest 380 437 11,000 -60 Descending Indianapolis Center
06:00PM 38.4883 -84.1931 330° Northwest 381 438 11,000  Level Indianapolis Center
06:01PM 38.5950 -84.2733 330° Northwest 379 436 11,100 -60 Climbing Indianapolis Center
06:02PM 38.6719 -84.3450 324° Northwest 380 437 10,900 -120 Descending Indianapolis Center
06:03PM 38.7408 -84.4481 311° West 376 433 10,900 -120 Level Indianapolis Center
06:04PM 38.8297 -84.5347 323° Northwest 356 410 10,700 -360 Descending Indianapolis Center
06:05PM 38.9000 -84.5333 North 308 354 10,300 -1,020 Descending Cincinnati TRACON
06:06PM 38.9833 -84.5333 360° North 285 328 9,100 -1,560 Descending Cincinnati TRACON
06:07PM 39.0333 -84.5333 360° North 283 326 7,500 -1,680 Descending Cincinnati TRACON
06:08PM 39.1167 -84.5333 360° North 228 262 5,800 -1,620 Descending Cincinnati TRACON
06:08PM 39.1489 -84.5444 345° North 248 285 4,800 -1,560 Descending Indianapolis Center
06:09PM 39.1461 -84.6092 267° West 232 267 3,400 -1,380 Descending Indianapolis Center